sensor_id;sensor_type;location;lat;lon;timestamp;P1;durP1;ratioP1;P2;durP2;ratioP2
41966;SDS011;27656;53.068;8.818;2022-12-29T00:01:38;7.47;;;4.87;;
41966;SDS011;27656;53.068;8.818;2022-12-29T00:04:04;5.67;;;4.40;;
41966;SDS011;27656;53.068;8.818;2022-12-29T00:06:39;5.13;;;4.63;;
41966;SDS011;27656;53.068;8.818;2022-12-29T00:09:05;5.43;;;4.53;;
41966;SDS011;27656;53.068;8.818;2022-12-29T00:11:32;5.23;;;4.73;;
41966;SDS011;27656;53.068;8.818;2022-12-29T00:13:58;4.77;;;4.37;;
41966;SDS011;27656;53.068;8.818;2022-12-29T00:16:51;5.73;;;4.80;;
41966;SDS011;27656;53.068;8.818;2022-12-29T00:19:17;7.37;;;4.77;;
41966;SDS011;27656;53.068;8.818;2022-12-29T00:22:02;5.67;;;4.87;;
41966;SDS011;27656;53.068;8.818;2022-12-29T00:24:47;7.07;;;5.90;;
41966;SDS011;27656;53.068;8.818;2022-12-29T00:27:32;6.57;;;5.20;;
41966;SDS011;27656;53.068;8.818;2022-12-29T00:30:18;6.53;;;5.77;;
41966;SDS011;27656;53.068;8.818;2022-12-29T00:33:09;7.30;;;5.80;;
41966;SDS011;27656;53.068;8.818;2022-12-29T00:35:59;7.20;;;6.47;;
41966;SDS011;27656;53.068;8.818;2022-12-29T00:38:28;6.83;;;6.00;;
41966;SDS011;27656;53.068;8.818;2022-12-29T00:41:14;9.10;;;6.03;;
41966;SDS011;27656;53.068;8.818;2022-12-29T00:43:59;8.10;;;6.10;;
41966;SDS011;27656;53.068;8.818;2022-12-29T00:46:39;7.67;;;6.87;;
41966;SDS011;27656;53.068;8.818;2022-12-29T00:49:07;8.07;;;6.87;;
41966;SDS011;27656;53.068;8.818;2022-12-29T00:51:54;7.87;;;6.43;;
41966;SDS011;27656;53.068;8.818;2022-12-29T00:54:21;7.37;;;6.63;;
41966;SDS011;27656;53.068;8.818;2022-12-29T00:56:48;9.00;;;7.00;;
41966;SDS011;27656;53.068;8.818;2022-12-29T00:59:15;8.53;;;7.50;;
41966;SDS011;27656;53.068;8.818;2022-12-29T01:01:43;8.10;;;7.27;;
41966;SDS011;27656;53.068;8.818;2022-12-29T01:04:10;7.63;;;6.77;;
41966;SDS011;27656;53.068;8.818;2022-12-29T01:06:37;7.87;;;7.07;;
41966;SDS011;27656;53.068;8.818;2022-12-29T01:09:05;7.20;;;6.50;;
41966;SDS011;27656;53.068;8.818;2022-12-29T01:11:50;7.80;;;6.87;;
41966;SDS011;27656;53.068;8.818;2022-12-29T01:14:17;7.67;;;6.87;;
41966;SDS011;27656;53.068;8.818;2022-12-29T01:16:44;8.30;;;6.40;;
41966;SDS011;27656;53.068;8.818;2022-12-29T01:19:11;6.43;;;5.83;;
41966;SDS011;27656;53.068;8.818;2022-12-29T01:21:39;6.47;;;5.87;;
41966;SDS011;27656;53.068;8.818;2022-12-29T01:24:05;6.23;;;5.63;;
41966;SDS011;27656;53.068;8.818;2022-12-29T01:26:32;7.57;;;6.30;;
41966;SDS011;27656;53.068;8.818;2022-12-29T01:28:58;5.80;;;5.20;;
41966;SDS011;27656;53.068;8.818;2022-12-29T01:31:25;6.37;;;5.77;;
41966;SDS011;27656;53.068;8.818;2022-12-29T01:33:51;6.73;;;5.67;;
41966;SDS011;27656;53.068;8.818;2022-12-29T01:36:18;6.43;;;5.83;;
41966;SDS011;27656;53.068;8.818;2022-12-29T01:38:45;6.17;;;5.57;;
41966;SDS011;27656;53.068;8.818;2022-12-29T01:41:12;5.60;;;5.10;;
41966;SDS011;27656;53.068;8.818;2022-12-29T01:43:57;6.07;;;5.47;;
41966;SDS011;27656;53.068;8.818;2022-12-29T01:46:39;6.27;;;5.67;;
41966;SDS011;27656;53.068;8.818;2022-12-29T01:49:13;6.50;;;5.87;;
41966;SDS011;27656;53.068;8.818;2022-12-29T01:54:28;6.50;;;5.87;;
41966;SDS011;27656;53.068;8.818;2022-12-29T01:56:56;7.03;;;5.77;;
41966;SDS011;27656;53.068;8.818;2022-12-29T01:59:24;8.87;;;6.33;;
41966;SDS011;27656;53.068;8.818;2022-12-29T02:01:54;6.10;;;5.50;;
41966;SDS011;27656;53.068;8.818;2022-12-29T02:04:20;7.10;;;6.07;;
41966;SDS011;27656;53.068;8.818;2022-12-29T02:06:51;7.37;;;5.60;;
41966;SDS011;27656;53.068;8.818;2022-12-29T02:09:22;6.23;;;5.63;;
41966;SDS011;27656;53.068;8.818;2022-12-29T02:11:49;6.73;;;5.00;;
41966;SDS011;27656;53.068;8.818;2022-12-29T02:14:16;6.53;;;5.93;;
41966;SDS011;27656;53.068;8.818;2022-12-29T02:16:50;6.70;;;5.63;;
41966;SDS011;27656;53.068;8.818;2022-12-29T02:27:50;6.33;;;5.33;;
41966;SDS011;27656;53.068;8.818;2022-12-29T02:36:03;5.87;;;5.27;;
41966;SDS011;27656;53.068;8.818;2022-12-29T02:38:50;5.90;;;5.30;;
41966;SDS011;27656;53.068;8.818;2022-12-29T02:41:28;5.23;;;4.80;;
41966;SDS011;27656;53.068;8.818;2022-12-29T02:44:13;5.23;;;4.53;;
41966;SDS011;27656;53.068;8.818;2022-12-29T02:46:44;5.77;;;5.17;;
41966;SDS011;27656;53.068;8.818;2022-12-29T02:52:07;5.73;;;5.03;;
41966;SDS011;27656;53.068;8.818;2022-12-29T02:54:38;5.77;;;5.27;;
41966;SDS011;27656;53.068;8.818;2022-12-29T02:57:11;5.60;;;5.10;;
41966;SDS011;27656;53.068;8.818;2022-12-29T02:59:39;5.13;;;4.73;;
41966;SDS011;27656;53.068;8.818;2022-12-29T03:02:24;5.83;;;5.10;;
41966;SDS011;27656;53.068;8.818;2022-12-29T03:11:04;4.60;;;4.20;;
41966;SDS011;27656;53.068;8.818;2022-12-29T03:13:37;5.00;;;4.50;;
41966;SDS011;27656;53.068;8.818;2022-12-29T03:19:15;3.70;;;3.40;;
41966;SDS011;27656;53.068;8.818;2022-12-29T03:21:46;3.57;;;3.27;;
41966;SDS011;27656;53.068;8.818;2022-12-29T03:24:38;3.00;;;2.80;;
41966;SDS011;27656;53.068;8.818;2022-12-29T03:27:08;3.30;;;3.00;;
41966;SDS011;27656;53.068;8.818;2022-12-29T03:29:39;3.40;;;2.90;;
41966;SDS011;27656;53.068;8.818;2022-12-29T03:32:08;2.87;;;2.67;;
41966;SDS011;27656;53.068;8.818;2022-12-29T03:34:35;2.70;;;2.50;;
41966;SDS011;27656;53.068;8.818;2022-12-29T03:37:05;4.90;;;2.63;;
41966;SDS011;27656;53.068;8.818;2022-12-29T03:39:34;2.70;;;2.50;;
41966;SDS011;27656;53.068;8.818;2022-12-29T03:42:01;3.67;;;2.40;;
41966;SDS011;27656;53.068;8.818;2022-12-29T03:44:33;2.60;;;2.40;;
41966;SDS011;27656;53.068;8.818;2022-12-29T03:47:02;2.43;;;2.23;;
41966;SDS011;27656;53.068;8.818;2022-12-29T03:49:29;2.93;;;2.60;;
41966;SDS011;27656;53.068;8.818;2022-12-29T03:51:55;3.00;;;2.50;;
41966;SDS011;27656;53.068;8.818;2022-12-29T03:54:22;4.93;;;2.30;;
41966;SDS011;27656;53.068;8.818;2022-12-29T03:56:49;3.07;;;2.53;;
41966;SDS011;27656;53.068;8.818;2022-12-29T03:59:15;4.63;;;2.60;;
41966;SDS011;27656;53.068;8.818;2022-12-29T04:01:43;2.50;;;2.30;;
41966;SDS011;27656;53.068;8.818;2022-12-29T04:04:10;3.00;;;2.80;;
41966;SDS011;27656;53.068;8.818;2022-12-29T04:06:36;2.80;;;2.60;;
41966;SDS011;27656;53.068;8.818;2022-12-29T04:09:03;3.60;;;3.30;;
41966;SDS011;27656;53.068;8.818;2022-12-29T04:11:29;3.27;;;2.97;;
41966;SDS011;27656;53.068;8.818;2022-12-29T04:13:59;4.30;;;3.10;;
41966;SDS011;27656;53.068;8.818;2022-12-29T04:16:26;4.20;;;3.80;;
41966;SDS011;27656;53.068;8.818;2022-12-29T04:18:52;3.90;;;3.60;;
41966;SDS011;27656;53.068;8.818;2022-12-29T04:21:19;4.30;;;3.90;;
41966;SDS011;27656;53.068;8.818;2022-12-29T04:23:45;4.53;;;4.13;;
41966;SDS011;27656;53.068;8.818;2022-12-29T04:26:12;4.90;;;4.50;;
41966;SDS011;27656;53.068;8.818;2022-12-29T04:28:39;5.27;;;4.50;;
41966;SDS011;27656;53.068;8.818;2022-12-29T04:31:06;6.57;;;4.57;;
41966;SDS011;27656;53.068;8.818;2022-12-29T04:33:33;5.93;;;4.40;;
41966;SDS011;27656;53.068;8.818;2022-12-29T04:35:59;4.43;;;4.03;;
41966;SDS011;27656;53.068;8.818;2022-12-29T04:38:27;6.17;;;4.40;;
41966;SDS011;27656;53.068;8.818;2022-12-29T04:40:53;4.57;;;4.17;;
41966;SDS011;27656;53.068;8.818;2022-12-29T04:43:20;4.87;;;4.47;;
41966;SDS011;27656;53.068;8.818;2022-12-29T04:45:48;4.70;;;4.30;;
41966;SDS011;27656;53.068;8.818;2022-12-29T04:48:14;4.50;;;4.10;;
41966;SDS011;27656;53.068;8.818;2022-12-29T04:50:41;5.60;;;4.23;;
41966;SDS011;27656;53.068;8.818;2022-12-29T04:53:08;4.73;;;4.33;;
41966;SDS011;27656;53.068;8.818;2022-12-29T04:55:35;5.20;;;3.47;;
41966;SDS011;27656;53.068;8.818;2022-12-29T04:58:01;4.47;;;3.53;;
41966;SDS011;27656;53.068;8.818;2022-12-29T05:00:27;5.73;;;3.17;;
41966;SDS011;27656;53.068;8.818;2022-12-29T05:02:54;3.30;;;2.97;;
41966;SDS011;27656;53.068;8.818;2022-12-29T05:05:21;4.93;;;2.73;;
41966;SDS011;27656;53.068;8.818;2022-12-29T05:07:47;4.30;;;3.03;;
41966;SDS011;27656;53.068;8.818;2022-12-29T05:10:13;5.23;;;3.27;;
41966;SDS011;27656;53.068;8.818;2022-12-29T05:12:40;3.77;;;2.73;;
41966;SDS011;27656;53.068;8.818;2022-12-29T05:15:07;4.40;;;3.10;;
41966;SDS011;27656;53.068;8.818;2022-12-29T05:17:34;3.63;;;3.07;;
41966;SDS011;27656;53.068;8.818;2022-12-29T05:20:00;5.20;;;2.80;;
41966;SDS011;27656;53.068;8.818;2022-12-29T05:22:27;2.87;;;2.47;;
41966;SDS011;27656;53.068;8.818;2022-12-29T05:24:54;1.97;;;1.70;;
41966;SDS011;27656;53.068;8.818;2022-12-29T05:27:21;5.03;;;2.07;;
41966;SDS011;27656;53.068;8.818;2022-12-29T05:29:47;1.73;;;1.00;;
41966;SDS011;27656;53.068;8.818;2022-12-29T05:32:14;2.13;;;1.10;;
41966;SDS011;27656;53.068;8.818;2022-12-29T05:34:44;3.40;;;1.23;;
41966;SDS011;27656;53.068;8.818;2022-12-29T05:37:10;2.27;;;0.93;;
41966;SDS011;27656;53.068;8.818;2022-12-29T05:39:36;1.37;;;1.27;;
41966;SDS011;27656;53.068;8.818;2022-12-29T05:42:03;1.80;;;1.40;;
41966;SDS011;27656;53.068;8.818;2022-12-29T05:44:29;2.33;;;2.00;;
41966;SDS011;27656;53.068;8.818;2022-12-29T05:46:56;3.37;;;2.27;;
41966;SDS011;27656;53.068;8.818;2022-12-29T05:49:22;3.50;;;2.70;;
41966;SDS011;27656;53.068;8.818;2022-12-29T05:51:49;3.37;;;2.70;;
41966;SDS011;27656;53.068;8.818;2022-12-29T05:54:15;3.53;;;3.23;;
41966;SDS011;27656;53.068;8.818;2022-12-29T05:56:42;3.80;;;3.43;;
41966;SDS011;27656;53.068;8.818;2022-12-29T05:59:09;3.17;;;2.87;;
41966;SDS011;27656;53.068;8.818;2022-12-29T06:01:35;5.40;;;3.47;;
41966;SDS011;27656;53.068;8.818;2022-12-29T06:04:02;4.80;;;3.30;;
41966;SDS011;27656;53.068;8.818;2022-12-29T06:06:29;5.03;;;3.00;;
41966;SDS011;27656;53.068;8.818;2022-12-29T06:08:56;4.83;;;2.87;;
41966;SDS011;27656;53.068;8.818;2022-12-29T06:11:22;4.80;;;2.90;;
41966;SDS011;27656;53.068;8.818;2022-12-29T06:13:49;5.17;;;2.70;;
41966;SDS011;27656;53.068;8.818;2022-12-29T06:16:15;5.27;;;2.33;;
41966;SDS011;27656;53.068;8.818;2022-12-29T06:18:42;4.57;;;2.47;;
41966;SDS011;27656;53.068;8.818;2022-12-29T06:21:08;4.47;;;2.50;;
41966;SDS011;27656;53.068;8.818;2022-12-29T06:23:35;3.00;;;2.27;;
41966;SDS011;27656;53.068;8.818;2022-12-29T06:26:01;2.83;;;2.30;;
41966;SDS011;27656;53.068;8.818;2022-12-29T06:28:28;4.00;;;2.73;;
41966;SDS011;27656;53.068;8.818;2022-12-29T06:30:54;2.93;;;2.10;;
41966;SDS011;27656;53.068;8.818;2022-12-29T06:33:21;4.70;;;2.17;;
41966;SDS011;27656;53.068;8.818;2022-12-29T06:35:47;5.43;;;2.20;;
41966;SDS011;27656;53.068;8.818;2022-12-29T06:38:14;2.47;;;2.17;;
41966;SDS011;27656;53.068;8.818;2022-12-29T06:40:42;3.50;;;2.30;;
41966;SDS011;27656;53.068;8.818;2022-12-29T06:43:09;2.60;;;2.20;;
41966;SDS011;27656;53.068;8.818;2022-12-29T06:45:37;4.67;;;2.77;;
41966;SDS011;27656;53.068;8.818;2022-12-29T06:48:04;3.03;;;2.40;;
41966;SDS011;27656;53.068;8.818;2022-12-29T06:50:31;3.20;;;2.67;;
41966;SDS011;27656;53.068;8.818;2022-12-29T06:52:57;4.73;;;2.70;;
41966;SDS011;27656;53.068;8.818;2022-12-29T06:55:24;4.77;;;3.17;;
41966;SDS011;27656;53.068;8.818;2022-12-29T06:57:53;3.20;;;2.73;;
41966;SDS011;27656;53.068;8.818;2022-12-29T07:00:20;5.93;;;3.17;;
41966;SDS011;27656;53.068;8.818;2022-12-29T07:02:48;4.97;;;2.93;;
41966;SDS011;27656;53.068;8.818;2022-12-29T07:05:15;3.00;;;2.70;;
41966;SDS011;27656;53.068;8.818;2022-12-29T07:07:42;3.67;;;2.67;;
41966;SDS011;27656;53.068;8.818;2022-12-29T07:10:08;2.83;;;2.40;;
41966;SDS011;27656;53.068;8.818;2022-12-29T07:12:34;4.93;;;3.30;;
41966;SDS011;27656;53.068;8.818;2022-12-29T07:15:01;4.63;;;2.57;;
41966;SDS011;27656;53.068;8.818;2022-12-29T07:17:27;8.07;;;2.93;;
41966;SDS011;27656;53.068;8.818;2022-12-29T07:19:54;1.87;;;1.77;;
41966;SDS011;27656;53.068;8.818;2022-12-29T07:22:20;4.50;;;1.70;;
41966;SDS011;27656;53.068;8.818;2022-12-29T07:24:47;3.87;;;1.67;;
41966;SDS011;27656;53.068;8.818;2022-12-29T07:27:13;2.90;;;1.40;;
41966;SDS011;27656;53.068;8.818;2022-12-29T07:29:39;4.20;;;1.57;;
41966;SDS011;27656;53.068;8.818;2022-12-29T07:32:06;2.33;;;1.67;;
41966;SDS011;27656;53.068;8.818;2022-12-29T07:34:32;3.47;;;1.70;;
41966;SDS011;27656;53.068;8.818;2022-12-29T07:36:59;3.33;;;1.40;;
41966;SDS011;27656;53.068;8.818;2022-12-29T07:39:25;3.27;;;1.30;;
41966;SDS011;27656;53.068;8.818;2022-12-29T07:41:52;4.17;;;1.40;;
41966;SDS011;27656;53.068;8.818;2022-12-29T07:44:18;2.73;;;1.40;;
41966;SDS011;27656;53.068;8.818;2022-12-29T07:46:45;3.47;;;1.17;;
41966;SDS011;27656;53.068;8.818;2022-12-29T07:49:22;6.13;;;1.33;;
41966;SDS011;27656;53.068;8.818;2022-12-29T07:51:49;3.87;;;1.03;;
41966;SDS011;27656;53.068;8.818;2022-12-29T07:54:15;7.13;;;1.30;;
41966;SDS011;27656;53.068;8.818;2022-12-29T07:56:44;3.50;;;1.10;;
41966;SDS011;27656;53.068;8.818;2022-12-29T07:59:11;3.30;;;1.00;;
41966;SDS011;27656;53.068;8.818;2022-12-29T08:01:38;5.67;;;1.23;;
41966;SDS011;27656;53.068;8.818;2022-12-29T08:04:04;2.00;;;1.00;;
41966;SDS011;27656;53.068;8.818;2022-12-29T08:06:31;5.30;;;1.40;;
41966;SDS011;27656;53.068;8.818;2022-12-29T08:08:57;5.07;;;1.30;;
41966;SDS011;27656;53.068;8.818;2022-12-29T08:11:33;4.83;;;1.00;;
41966;SDS011;27656;53.068;8.818;2022-12-29T08:13:59;1.50;;;0.87;;
41966;SDS011;27656;53.068;8.818;2022-12-29T08:16:26;4.03;;;1.30;;
41966;SDS011;27656;53.068;8.818;2022-12-29T08:18:54;5.47;;;1.00;;
41966;SDS011;27656;53.068;8.818;2022-12-29T08:21:20;7.40;;;1.40;;
41966;SDS011;27656;53.068;8.818;2022-12-29T08:23:47;6.47;;;1.40;;
41966;SDS011;27656;53.068;8.818;2022-12-29T08:26:13;5.07;;;1.40;;
41966;SDS011;27656;53.068;8.818;2022-12-29T08:28:40;8.67;;;1.33;;
41966;SDS011;27656;53.068;8.818;2022-12-29T08:31:06;5.37;;;1.40;;
41966;SDS011;27656;53.068;8.818;2022-12-29T08:33:33;10.30;;;1.40;;
41966;SDS011;27656;53.068;8.818;2022-12-29T08:36:00;7.30;;;1.40;;
41966;SDS011;27656;53.068;8.818;2022-12-29T08:38:27;6.00;;;1.60;;
41966;SDS011;27656;53.068;8.818;2022-12-29T08:40:55;6.63;;;1.30;;
41966;SDS011;27656;53.068;8.818;2022-12-29T08:43:26;5.30;;;1.30;;
41966;SDS011;27656;53.068;8.818;2022-12-29T08:45:53;7.33;;;1.33;;
41966;SDS011;27656;53.068;8.818;2022-12-29T08:48:20;5.00;;;1.20;;
41966;SDS011;27656;53.068;8.818;2022-12-29T08:50:48;3.77;;;1.27;;
41966;SDS011;27656;53.068;8.818;2022-12-29T08:53:16;6.27;;;2.00;;
41966;SDS011;27656;53.068;8.818;2022-12-29T08:55:47;7.93;;;1.30;;
41966;SDS011;27656;53.068;8.818;2022-12-29T08:58:27;8.97;;;1.30;;
41966;SDS011;27656;53.068;8.818;2022-12-29T09:00:54;5.07;;;1.20;;
41966;SDS011;27656;53.068;8.818;2022-12-29T09:03:22;6.57;;;1.10;;
41966;SDS011;27656;53.068;8.818;2022-12-29T09:06:09;7.13;;;1.20;;
41966;SDS011;27656;53.068;8.818;2022-12-29T09:08:35;7.17;;;1.30;;
41966;SDS011;27656;53.068;8.818;2022-12-29T09:11:09;5.70;;;1.10;;
41966;SDS011;27656;53.068;8.818;2022-12-29T09:13:36;6.23;;;1.10;;
41966;SDS011;27656;53.068;8.818;2022-12-29T09:16:03;4.10;;;1.20;;
41966;SDS011;27656;53.068;8.818;2022-12-29T09:18:30;5.60;;;1.33;;
41966;SDS011;27656;53.068;8.818;2022-12-29T09:21:00;4.83;;;1.20;;
41966;SDS011;27656;53.068;8.818;2022-12-29T09:23:29;6.53;;;1.10;;
41966;SDS011;27656;53.068;8.818;2022-12-29T09:25:55;4.67;;;1.10;;
41966;SDS011;27656;53.068;8.818;2022-12-29T09:28:22;9.23;;;1.63;;
41966;SDS011;27656;53.068;8.818;2022-12-29T09:30:49;6.10;;;1.30;;
41966;SDS011;27656;53.068;8.818;2022-12-29T09:33:16;5.00;;;1.40;;
41966;SDS011;27656;53.068;8.818;2022-12-29T09:35:43;6.33;;;1.10;;
41966;SDS011;27656;53.068;8.818;2022-12-29T09:38:11;6.23;;;1.30;;
41966;SDS011;27656;53.068;8.818;2022-12-29T09:40:38;8.40;;;1.73;;
41966;SDS011;27656;53.068;8.818;2022-12-29T09:45:55;7.00;;;1.50;;
41966;SDS011;27656;53.068;8.818;2022-12-29T09:48:31;6.80;;;1.60;;
41966;SDS011;27656;53.068;8.818;2022-12-29T09:51:01;5.40;;;1.00;;
41966;SDS011;27656;53.068;8.818;2022-12-29T09:53:36;7.30;;;1.40;;
41966;SDS011;27656;53.068;8.818;2022-12-29T09:56:04;5.97;;;1.00;;
41966;SDS011;27656;53.068;8.818;2022-12-29T09:58:36;7.53;;;1.67;;
41966;SDS011;27656;53.068;8.818;2022-12-29T10:01:06;7.93;;;1.10;;
41966;SDS011;27656;53.068;8.818;2022-12-29T10:10:03;7.33;;;1.40;;
41966;SDS011;27656;53.068;8.818;2022-12-29T10:12:29;3.97;;;1.27;;
41966;SDS011;27656;53.068;8.818;2022-12-29T10:23:35;8.60;;;1.13;;
41966;SDS011;27656;53.068;8.818;2022-12-29T10:26:07;3.63;;;1.10;;
41966;SDS011;27656;53.068;8.818;2022-12-29T10:28:47;2.17;;;0.90;;
41966;SDS011;27656;53.068;8.818;2022-12-29T10:31:18;3.27;;;0.67;;
41966;SDS011;27656;53.068;8.818;2022-12-29T10:33:53;3.17;;;0.87;;
41966;SDS011;27656;53.068;8.818;2022-12-29T10:36:32;2.17;;;0.60;;
41966;SDS011;27656;53.068;8.818;2022-12-29T10:39:06;4.10;;;0.73;;
41966;SDS011;27656;53.068;8.818;2022-12-29T10:41:48;3.63;;;0.63;;
41966;SDS011;27656;53.068;8.818;2022-12-29T10:44:17;3.13;;;0.70;;
41966;SDS011;27656;53.068;8.818;2022-12-29T10:46:54;1.27;;;0.90;;
41966;SDS011;27656;53.068;8.818;2022-12-29T10:49:22;2.53;;;0.60;;
41966;SDS011;27656;53.068;8.818;2022-12-29T10:51:51;5.17;;;1.70;;
41966;SDS011;27656;53.068;8.818;2022-12-29T10:54:23;3.27;;;0.80;;
41966;SDS011;27656;53.068;8.818;2022-12-29T10:57:00;2.53;;;0.90;;
41966;SDS011;27656;53.068;8.818;2022-12-29T10:59:29;5.27;;;1.20;;
41966;SDS011;27656;53.068;8.818;2022-12-29T11:02:12;4.57;;;1.10;;
41966;SDS011;27656;53.068;8.818;2022-12-29T11:08:03;4.97;;;1.30;;
41966;SDS011;27656;53.068;8.818;2022-12-29T11:10:37;5.63;;;1.20;;
41966;SDS011;27656;53.068;8.818;2022-12-29T11:13:10;5.67;;;1.40;;
41966;SDS011;27656;53.068;8.818;2022-12-29T11:15:41;4.30;;;1.13;;
41966;SDS011;27656;53.068;8.818;2022-12-29T11:20:54;6.43;;;1.37;;
41966;SDS011;27656;53.068;8.818;2022-12-29T11:23:31;8.37;;;1.30;;
41966;SDS011;27656;53.068;8.818;2022-12-29T11:26:06;7.97;;;1.50;;
41966;SDS011;27656;53.068;8.818;2022-12-29T11:28:36;7.43;;;1.57;;
41966;SDS011;27656;53.068;8.818;2022-12-29T11:31:04;4.10;;;1.20;;
41966;SDS011;27656;53.068;8.818;2022-12-29T11:33:32;8.23;;;1.47;;
41966;SDS011;27656;53.068;8.818;2022-12-29T11:36:02;6.67;;;1.50;;
41966;SDS011;27656;53.068;8.818;2022-12-29T11:38:36;6.87;;;1.67;;
41966;SDS011;27656;53.068;8.818;2022-12-29T11:41:04;8.40;;;1.50;;
41966;SDS011;27656;53.068;8.818;2022-12-29T11:43:33;9.97;;;1.80;;
41966;SDS011;27656;53.068;8.818;2022-12-29T11:46:02;6.10;;;1.50;;
41966;SDS011;27656;53.068;8.818;2022-12-29T11:48:33;7.60;;;1.57;;
41966;SDS011;27656;53.068;8.818;2022-12-29T11:51:04;7.70;;;1.57;;
41966;SDS011;27656;53.068;8.818;2022-12-29T11:53:34;9.47;;;1.73;;
41966;SDS011;27656;53.068;8.818;2022-12-29T11:56:06;7.70;;;1.67;;
41966;SDS011;27656;53.068;8.818;2022-12-29T11:58:36;8.53;;;1.53;;
41966;SDS011;27656;53.068;8.818;2022-12-29T12:01:20;11.20;;;2.03;;
41966;SDS011;27656;53.068;8.818;2022-12-29T12:09:40;9.97;;;1.70;;
41966;SDS011;27656;53.068;8.818;2022-12-29T12:12:13;5.63;;;1.20;;
41966;SDS011;27656;53.068;8.818;2022-12-29T12:14:53;7.93;;;1.40;;
41966;SDS011;27656;53.068;8.818;2022-12-29T12:17:27;10.00;;;1.60;;
41966;SDS011;27656;53.068;8.818;2022-12-29T12:20:19;7.80;;;1.60;;
41966;SDS011;27656;53.068;8.818;2022-12-29T12:23:52;4.80;;;1.27;;
41966;SDS011;27656;53.068;8.818;2022-12-29T12:25:51;8.30;;;1.20;;
41966;SDS011;27656;53.068;8.818;2022-12-29T12:31:15;8.40;;;1.20;;
41966;SDS011;27656;53.068;8.818;2022-12-29T12:33:46;7.10;;;1.47;;
41966;SDS011;27656;53.068;8.818;2022-12-29T12:38:59;5.10;;;1.30;;
41966;SDS011;27656;53.068;8.818;2022-12-29T12:49:26;5.30;;;1.30;;
41966;SDS011;27656;53.068;8.818;2022-12-29T12:52:12;3.93;;;1.20;;
41966;SDS011;27656;53.068;8.818;2022-12-29T13:00:21;7.43;;;1.40;;
41966;SDS011;27656;53.068;8.818;2022-12-29T13:05:38;5.17;;;1.10;;
41966;SDS011;27656;53.068;8.818;2022-12-29T13:22:06;5.93;;;1.10;;
41966;SDS011;27656;53.068;8.818;2022-12-29T13:24:47;7.10;;;1.20;;
41966;SDS011;27656;53.068;8.818;2022-12-29T13:30:29;6.20;;;1.30;;
41966;SDS011;27656;53.068;8.818;2022-12-29T13:38:21;6.00;;;1.20;;
41966;SDS011;27656;53.068;8.818;2022-12-29T13:40:56;6.13;;;1.70;;
41966;SDS011;27656;53.068;8.818;2022-12-29T13:43:27;7.63;;;1.40;;
41966;SDS011;27656;53.068;8.818;2022-12-29T13:45:59;6.37;;;1.50;;
41966;SDS011;27656;53.068;8.818;2022-12-29T13:48:51;6.47;;;1.10;;
41966;SDS011;27656;53.068;8.818;2022-12-29T13:51:17;6.30;;;1.50;;
41966;SDS011;27656;53.068;8.818;2022-12-29T13:57:00;2.97;;;1.10;;
41966;SDS011;27656;53.068;8.818;2022-12-29T13:59:36;8.60;;;1.30;;
41966;SDS011;27656;53.068;8.818;2022-12-29T14:02:17;5.93;;;1.20;;
41966;SDS011;27656;53.068;8.818;2022-12-29T14:04:58;5.07;;;1.13;;
41966;SDS011;27656;53.068;8.818;2022-12-29T14:07:35;5.73;;;1.17;;
41966;SDS011;27656;53.068;8.818;2022-12-29T14:10:03;5.67;;;1.30;;
41966;SDS011;27656;53.068;8.818;2022-12-29T14:12:38;5.27;;;1.20;;
41966;SDS011;27656;53.068;8.818;2022-12-29T14:17:37;6.37;;;1.50;;
41966;SDS011;27656;53.068;8.818;2022-12-29T14:20:04;6.07;;;1.40;;
41966;SDS011;27656;53.068;8.818;2022-12-29T14:22:33;6.47;;;1.70;;
41966;SDS011;27656;53.068;8.818;2022-12-29T14:25:00;7.67;;;1.67;;
41966;SDS011;27656;53.068;8.818;2022-12-29T14:29:56;5.07;;;1.20;;
41966;SDS011;27656;53.068;8.818;2022-12-29T14:34:52;9.33;;;1.53;;
41966;SDS011;27656;53.068;8.818;2022-12-29T14:42:40;4.50;;;1.67;;
41966;SDS011;27656;53.068;8.818;2022-12-29T14:45:21;7.17;;;1.53;;
41966;SDS011;27656;53.068;8.818;2022-12-29T14:47:53;9.77;;;1.50;;
41966;SDS011;27656;53.068;8.818;2022-12-29T14:50:24;6.50;;;1.40;;
41966;SDS011;27656;53.068;8.818;2022-12-29T14:52:56;2.43;;;1.03;;
41966;SDS011;27656;53.068;8.818;2022-12-29T14:58:14;6.67;;;2.00;;
41966;SDS011;27656;53.068;8.818;2022-12-29T15:00:43;7.80;;;1.50;;
41966;SDS011;27656;53.068;8.818;2022-12-29T15:03:18;7.57;;;1.93;;
41966;SDS011;27656;53.068;8.818;2022-12-29T15:08:25;7.33;;;1.47;;
41966;SDS011;27656;53.068;8.818;2022-12-29T15:10:56;9.60;;;1.70;;
41966;SDS011;27656;53.068;8.818;2022-12-29T15:13:32;9.03;;;1.77;;
41966;SDS011;27656;53.068;8.818;2022-12-29T15:16:00;6.73;;;1.70;;
41966;SDS011;27656;53.068;8.818;2022-12-29T15:18:28;7.53;;;2.00;;
41966;SDS011;27656;53.068;8.818;2022-12-29T15:21:03;6.90;;;2.27;;
41966;SDS011;27656;53.068;8.818;2022-12-29T15:23:32;9.10;;;2.30;;
41966;SDS011;27656;53.068;8.818;2022-12-29T15:26:04;10.53;;;1.63;;
41966;SDS011;27656;53.068;8.818;2022-12-29T15:28:39;5.70;;;1.77;;
41966;SDS011;27656;53.068;8.818;2022-12-29T15:31:22;10.00;;;1.90;;
41966;SDS011;27656;53.068;8.818;2022-12-29T15:34:07;7.00;;;2.03;;
41966;SDS011;27656;53.068;8.818;2022-12-29T15:36:37;8.27;;;1.80;;
41966;SDS011;27656;53.068;8.818;2022-12-29T15:39:17;5.77;;;1.97;;
41966;SDS011;27656;53.068;8.818;2022-12-29T15:41:48;10.43;;;1.80;;
41966;SDS011;27656;53.068;8.818;2022-12-29T15:44:28;7.30;;;1.70;;
41966;SDS011;27656;53.068;8.818;2022-12-29T15:46:56;6.43;;;1.80;;
41966;SDS011;27656;53.068;8.818;2022-12-29T15:49:23;5.70;;;1.73;;
41966;SDS011;27656;53.068;8.818;2022-12-29T15:51:57;8.57;;;1.93;;
41966;SDS011;27656;53.068;8.818;2022-12-29T15:54:31;6.07;;;1.47;;
41966;SDS011;27656;53.068;8.818;2022-12-29T15:56:57;7.00;;;1.87;;
41966;SDS011;27656;53.068;8.818;2022-12-29T15:59:28;8.93;;;1.60;;
41966;SDS011;27656;53.068;8.818;2022-12-29T16:01:59;11.30;;;2.10;;
41966;SDS011;27656;53.068;8.818;2022-12-29T16:04:33;7.60;;;2.13;;
41966;SDS011;27656;53.068;8.818;2022-12-29T16:07:30;10.33;;;1.97;;
41966;SDS011;27656;53.068;8.818;2022-12-29T16:10:21;6.60;;;2.03;;
41966;SDS011;27656;53.068;8.818;2022-12-29T16:13:03;11.17;;;2.40;;
41966;SDS011;27656;53.068;8.818;2022-12-29T16:15:32;6.23;;;2.40;;
41966;SDS011;27656;53.068;8.818;2022-12-29T16:17:59;6.60;;;2.07;;
41966;SDS011;27656;53.068;8.818;2022-12-29T16:20:31;6.83;;;2.60;;
41966;SDS011;27656;53.068;8.818;2022-12-29T16:23:04;7.93;;;3.00;;
41966;SDS011;27656;53.068;8.818;2022-12-29T16:25:31;9.27;;;3.27;;
41966;SDS011;27656;53.068;8.818;2022-12-29T16:28:01;8.63;;;3.23;;
41966;SDS011;27656;53.068;8.818;2022-12-29T16:30:29;7.40;;;3.17;;
41966;SDS011;27656;53.068;8.818;2022-12-29T16:33:00;9.77;;;3.63;;
41966;SDS011;27656;53.068;8.818;2022-12-29T16:35:39;13.70;;;4.73;;
41966;SDS011;27656;53.068;8.818;2022-12-29T16:38:13;8.73;;;3.27;;
41966;SDS011;27656;53.068;8.818;2022-12-29T16:43:27;10.37;;;3.47;;
41966;SDS011;27656;53.068;8.818;2022-12-29T16:48:33;8.50;;;3.30;;
41966;SDS011;27656;53.068;8.818;2022-12-29T16:51:03;10.00;;;3.73;;
41966;SDS011;27656;53.068;8.818;2022-12-29T16:53:40;15.43;;;3.30;;
41966;SDS011;27656;53.068;8.818;2022-12-29T16:56:19;18.67;;;3.83;;
41966;SDS011;27656;53.068;8.818;2022-12-29T16:59:09;10.20;;;3.63;;
41966;SDS011;27656;53.068;8.818;2022-12-29T17:01:44;11.37;;;4.20;;
41966;SDS011;27656;53.068;8.818;2022-12-29T17:04:11;12.53;;;3.93;;
41966;SDS011;27656;53.068;8.818;2022-12-29T17:06:39;14.43;;;4.00;;
41966;SDS011;27656;53.068;8.818;2022-12-29T17:09:19;8.87;;;3.10;;
41966;SDS011;27656;53.068;8.818;2022-12-29T17:11:51;14.77;;;4.00;;
41966;SDS011;27656;53.068;8.818;2022-12-29T17:14:34;13.40;;;3.53;;
41966;SDS011;27656;53.068;8.818;2022-12-29T17:17:02;10.60;;;3.60;;
41966;SDS011;27656;53.068;8.818;2022-12-29T17:19:32;10.20;;;3.83;;